sensor_id;sensor_type;location;lat;lon;timestamp;P1;durP1;ratioP1;P2;durP2;ratioP2
80623;SDS011;70269;44.768;9.600;2024-02-21T00:01:53;6.80;;;3.10;;
80623;SDS011;70269;44.768;9.600;2024-02-21T00:04:18;5.72;;;2.78;;
80623;SDS011;70269;44.768;9.600;2024-02-21T00:06:44;5.38;;;2.83;;
80623;SDS011;70269;44.768;9.600;2024-02-21T00:09:10;7.90;;;2.67;;
80623;SDS011;70269;44.768;9.600;2024-02-21T00:11:36;6.15;;;2.53;;
80623;SDS011;70269;44.768;9.600;2024-02-21T00:14:01;5.55;;;2.38;;
80623;SDS011;70269;44.768;9.600;2024-02-21T00:16:27;10.43;;;2.63;;
80623;SDS011;70269;44.768;9.600;2024-02-21T00:18:52;5.85;;;2.80;;
80623;SDS011;70269;44.768;9.600;2024-02-21T00:21:18;5.53;;;2.00;;
80623;SDS011;70269;44.768;9.600;2024-02-21T00:23:44;6.20;;;2.30;;
80623;SDS011;70269;44.768;9.600;2024-02-21T00:26:15;6.95;;;2.10;;
80623;SDS011;70269;44.768;9.600;2024-02-21T00:28:41;5.18;;;2.25;;
80623;SDS011;70269;44.768;9.600;2024-02-21T00:31:07;5.68;;;2.40;;
80623;SDS011;70269;44.768;9.600;2024-02-21T00:33:32;4.22;;;2.20;;
80623;SDS011;70269;44.768;9.600;2024-02-21T00:35:58;4.82;;;2.05;;
80623;SDS011;70269;44.768;9.600;2024-02-21T00:38:24;6.07;;;2.58;;
80623;SDS011;70269;44.768;9.600;2024-02-21T00:40:49;4.75;;;2.33;;
80623;SDS011;70269;44.768;9.600;2024-02-21T00:43:15;4.68;;;2.00;;
80623;SDS011;70269;44.768;9.600;2024-02-21T00:45:40;7.32;;;3.03;;
80623;SDS011;70269;44.768;9.600;2024-02-21T00:48:06;6.10;;;2.38;;
80623;SDS011;70269;44.768;9.600;2024-02-21T00:50:32;7.20;;;2.78;;
80623;SDS011;70269;44.768;9.600;2024-02-21T00:52:57;8.23;;;3.33;;
80623;SDS011;70269;44.768;9.600;2024-02-21T00:55:23;5.35;;;2.50;;
80623;SDS011;70269;44.768;9.600;2024-02-21T00:57:48;5.25;;;2.40;;
80623;SDS011;70269;44.768;9.600;2024-02-21T01:00:14;6.90;;;2.85;;
80623;SDS011;70269;44.768;9.600;2024-02-21T01:02:40;4.28;;;1.92;;
80623;SDS011;70269;44.768;9.600;2024-02-21T01:05:06;5.38;;;2.35;;
80623;SDS011;70269;44.768;9.600;2024-02-21T01:07:32;6.57;;;2.67;;
80623;SDS011;70269;44.768;9.600;2024-02-21T01:09:58;5.15;;;1.75;;
80623;SDS011;70269;44.768;9.600;2024-02-21T01:12:23;8.45;;;2.63;;
80623;SDS011;70269;44.768;9.600;2024-02-21T01:14:49;5.05;;;2.47;;
80623;SDS011;70269;44.768;9.600;2024-02-21T01:17:14;6.50;;;2.65;;
80623;SDS011;70269;44.768;9.600;2024-02-21T01:19:40;5.78;;;2.40;;
80623;SDS011;70269;44.768;9.600;2024-02-21T01:22:06;7.78;;;2.60;;
80623;SDS011;70269;44.768;9.600;2024-02-21T01:24:32;7.28;;;2.75;;
80623;SDS011;70269;44.768;9.600;2024-02-21T01:26:57;9.32;;;2.90;;
80623;SDS011;70269;44.768;9.600;2024-02-21T01:29:23;5.45;;;2.10;;
80623;SDS011;70269;44.768;9.600;2024-02-21T01:31:49;5.47;;;2.30;;
80623;SDS011;70269;44.768;9.600;2024-02-21T01:34:14;8.60;;;3.15;;
80623;SDS011;70269;44.768;9.600;2024-02-21T01:36:40;5.25;;;2.10;;
80623;SDS011;70269;44.768;9.600;2024-02-21T01:39:07;3.53;;;2.00;;
80623;SDS011;70269;44.768;9.600;2024-02-21T01:41:33;5.78;;;2.53;;
80623;SDS011;70269;44.768;9.600;2024-02-21T01:43:58;5.65;;;2.58;;
80623;SDS011;70269;44.768;9.600;2024-02-21T01:46:24;4.93;;;2.17;;
80623;SDS011;70269;44.768;9.600;2024-02-21T01:48:54;6.45;;;2.40;;
80623;SDS011;70269;44.768;9.600;2024-02-21T01:51:21;4.63;;;2.00;;
80623;SDS011;70269;44.768;9.600;2024-02-21T01:53:47;6.72;;;2.40;;
80623;SDS011;70269;44.768;9.600;2024-02-21T01:56:15;6.10;;;2.42;;
80623;SDS011;70269;44.768;9.600;2024-02-21T01:58:42;6.68;;;2.55;;
80623;SDS011;70269;44.768;9.600;2024-02-21T02:01:08;6.47;;;2.80;;
80623;SDS011;70269;44.768;9.600;2024-02-21T02:03:35;4.38;;;1.90;;
80623;SDS011;70269;44.768;9.600;2024-02-21T02:06:00;3.95;;;2.33;;
80623;SDS011;70269;44.768;9.600;2024-02-21T02:08:26;4.97;;;1.80;;
80623;SDS011;70269;44.768;9.600;2024-02-21T02:10:52;5.07;;;2.42;;
80623;SDS011;70269;44.768;9.600;2024-02-21T02:13:18;7.00;;;2.38;;
80623;SDS011;70269;44.768;9.600;2024-02-21T02:15:44;5.85;;;2.35;;
80623;SDS011;70269;44.768;9.600;2024-02-21T02:18:11;6.63;;;2.80;;
80623;SDS011;70269;44.768;9.600;2024-02-21T02:20:37;6.72;;;2.28;;
80623;SDS011;70269;44.768;9.600;2024-02-21T02:23:24;3.38;;;1.75;;
80623;SDS011;70269;44.768;9.600;2024-02-21T02:25:56;7.63;;;2.55;;
80623;SDS011;70269;44.768;9.600;2024-02-21T02:28:23;4.00;;;1.83;;
80623;SDS011;70269;44.768;9.600;2024-02-21T02:30:49;9.45;;;2.63;;
80623;SDS011;70269;44.768;9.600;2024-02-21T02:33:15;6.25;;;2.20;;
80623;SDS011;70269;44.768;9.600;2024-02-21T02:35:44;6.32;;;2.65;;
80623;SDS011;70269;44.768;9.600;2024-02-21T02:38:11;5.85;;;2.42;;
80623;SDS011;70269;44.768;9.600;2024-02-21T02:40:37;5.13;;;2.00;;
80623;SDS011;70269;44.768;9.600;2024-02-21T02:43:03;4.22;;;1.65;;
80623;SDS011;70269;44.768;9.600;2024-02-21T02:45:29;6.78;;;2.35;;
80623;SDS011;70269;44.768;9.600;2024-02-21T02:47:55;6.15;;;2.38;;
80623;SDS011;70269;44.768;9.600;2024-02-21T02:50:25;6.15;;;2.67;;
80623;SDS011;70269;44.768;9.600;2024-02-21T02:52:52;4.68;;;1.92;;
80623;SDS011;70269;44.768;9.600;2024-02-21T02:55:18;4.72;;;1.90;;
80623;SDS011;70269;44.768;9.600;2024-02-21T02:57:44;5.65;;;2.78;;
80623;SDS011;70269;44.768;9.600;2024-02-21T03:00:11;6.82;;;2.70;;
80623;SDS011;70269;44.768;9.600;2024-02-21T03:02:38;6.60;;;2.70;;
80623;SDS011;70269;44.768;9.600;2024-02-21T03:05:11;9.05;;;3.05;;
80623;SDS011;70269;44.768;9.600;2024-02-21T03:07:41;8.07;;;2.40;;
80623;SDS011;70269;44.768;9.600;2024-02-21T03:10:07;8.48;;;3.40;;
80623;SDS011;70269;44.768;9.600;2024-02-21T03:12:34;4.82;;;2.08;;
80623;SDS011;70269;44.768;9.600;2024-02-21T03:14:59;7.20;;;2.85;;
80623;SDS011;70269;44.768;9.600;2024-02-21T03:17:25;6.82;;;2.65;;
80623;SDS011;70269;44.768;9.600;2024-02-21T03:19:54;5.35;;;2.13;;
80623;SDS011;70269;44.768;9.600;2024-02-21T03:22:21;9.02;;;2.78;;
80623;SDS011;70269;44.768;9.600;2024-02-21T03:24:47;5.43;;;2.60;;
80623;SDS011;70269;44.768;9.600;2024-02-21T03:27:13;5.28;;;2.15;;
80623;SDS011;70269;44.768;9.600;2024-02-21T03:29:38;3.65;;;1.98;;
80623;SDS011;70269;44.768;9.600;2024-02-21T03:32:04;8.70;;;2.78;;
80623;SDS011;70269;44.768;9.600;2024-02-21T03:34:30;5.20;;;2.72;;
80623;SDS011;70269;44.768;9.600;2024-02-21T03:36:55;11.32;;;2.97;;
80623;SDS011;70269;44.768;9.600;2024-02-21T03:39:21;6.57;;;3.03;;
80623;SDS011;70269;44.768;9.600;2024-02-21T03:41:47;7.13;;;2.63;;
80623;SDS011;70269;44.768;9.600;2024-02-21T03:44:12;7.18;;;3.00;;
80623;SDS011;70269;44.768;9.600;2024-02-21T03:46:38;6.15;;;2.83;;
80623;SDS011;70269;44.768;9.600;2024-02-21T03:49:04;6.13;;;2.70;;
80623;SDS011;70269;44.768;9.600;2024-02-21T03:51:29;6.05;;;2.47;;
80623;SDS011;70269;44.768;9.600;2024-02-21T03:53:55;7.95;;;2.92;;
80623;SDS011;70269;44.768;9.600;2024-02-21T03:56:20;7.05;;;3.33;;
80623;SDS011;70269;44.768;9.600;2024-02-21T03:58:46;6.47;;;2.10;;
80623;SDS011;70269;44.768;9.600;2024-02-21T04:01:12;8.32;;;2.72;;
80623;SDS011;70269;44.768;9.600;2024-02-21T04:03:40;5.22;;;1.83;;
80623;SDS011;70269;44.768;9.600;2024-02-21T04:06:06;5.35;;;2.53;;
80623;SDS011;70269;44.768;9.600;2024-02-21T04:08:31;9.10;;;3.03;;
80623;SDS011;70269;44.768;9.600;2024-02-21T04:10:57;7.68;;;3.08;;
80623;SDS011;70269;44.768;9.600;2024-02-21T04:13:22;8.55;;;2.63;;
80623;SDS011;70269;44.768;9.600;2024-02-21T04:15:48;7.25;;;2.67;;
80623;SDS011;70269;44.768;9.600;2024-02-21T04:18:14;5.28;;;2.95;;
80623;SDS011;70269;44.768;9.600;2024-02-21T04:20:40;6.35;;;2.67;;
80623;SDS011;70269;44.768;9.600;2024-02-21T04:23:05;7.03;;;3.47;;
80623;SDS011;70269;44.768;9.600;2024-02-21T04:25:31;5.35;;;2.60;;
80623;SDS011;70269;44.768;9.600;2024-02-21T04:27:57;6.30;;;3.13;;
80623;SDS011;70269;44.768;9.600;2024-02-21T04:30:22;7.90;;;2.80;;
80623;SDS011;70269;44.768;9.600;2024-02-21T04:32:48;6.80;;;2.58;;
80623;SDS011;70269;44.768;9.600;2024-02-21T04:35:13;9.90;;;3.20;;
80623;SDS011;70269;44.768;9.600;2024-02-21T04:37:39;6.03;;;2.20;;
80623;SDS011;70269;44.768;9.600;2024-02-21T04:40:05;9.45;;;3.42;;
80623;SDS011;70269;44.768;9.600;2024-02-21T04:42:31;7.57;;;2.97;;
80623;SDS011;70269;44.768;9.600;2024-02-21T04:44:57;6.57;;;2.90;;
80623;SDS011;70269;44.768;9.600;2024-02-21T04:47:22;8.05;;;2.67;;
80623;SDS011;70269;44.768;9.600;2024-02-21T04:49:51;6.50;;;3.03;;
80623;SDS011;70269;44.768;9.600;2024-02-21T04:52:17;8.65;;;3.33;;
80623;SDS011;70269;44.768;9.600;2024-02-21T04:54:43;7.82;;;2.90;;
80623;SDS011;70269;44.768;9.600;2024-02-21T04:57:08;6.88;;;3.17;;
80623;SDS011;70269;44.768;9.600;2024-02-21T04:59:35;8.35;;;2.50;;
80623;SDS011;70269;44.768;9.600;2024-02-21T05:02:01;8.63;;;3.55;;
80623;SDS011;70269;44.768;9.600;2024-02-21T05:04:27;6.18;;;2.85;;
80623;SDS011;70269;44.768;9.600;2024-02-21T05:06:53;7.72;;;2.28;;
80623;SDS011;70269;44.768;9.600;2024-02-21T05:09:20;8.70;;;3.70;;
80623;SDS011;70269;44.768;9.600;2024-02-21T05:11:45;13.07;;;3.67;;
80623;SDS011;70269;44.768;9.600;2024-02-21T05:14:11;7.03;;;3.17;;
80623;SDS011;70269;44.768;9.600;2024-02-21T05:16:36;11.13;;;2.75;;
80623;SDS011;70269;44.768;9.600;2024-02-21T05:19:04;8.40;;;3.17;;
80623;SDS011;70269;44.768;9.600;2024-02-21T05:21:29;6.82;;;2.47;;
80623;SDS011;70269;44.768;9.600;2024-02-21T05:23:55;8.07;;;2.88;;
80623;SDS011;70269;44.768;9.600;2024-02-21T05:26:24;6.47;;;2.83;;
80623;SDS011;70269;44.768;9.600;2024-02-21T05:28:50;11.00;;;3.53;;
80623;SDS011;70269;44.768;9.600;2024-02-21T05:31:17;6.53;;;2.88;;
80623;SDS011;70269;44.768;9.600;2024-02-21T05:33:43;10.07;;;3.38;;
80623;SDS011;70269;44.768;9.600;2024-02-21T05:36:09;15.10;;;3.70;;
80623;SDS011;70269;44.768;9.600;2024-02-21T05:38:35;2.95;;;1.83;;
80623;SDS011;70269;44.768;9.600;2024-02-21T05:41:01;7.88;;;2.78;;
80623;SDS011;70269;44.768;9.600;2024-02-21T05:43:27;5.45;;;3.03;;
80623;SDS011;70269;44.768;9.600;2024-02-21T05:45:52;7.70;;;3.00;;
80623;SDS011;70269;44.768;9.600;2024-02-21T05:48:18;6.90;;;2.92;;
80623;SDS011;70269;44.768;9.600;2024-02-21T05:50:44;8.35;;;3.55;;
80623;SDS011;70269;44.768;9.600;2024-02-21T05:53:09;7.72;;;3.33;;
80623;SDS011;70269;44.768;9.600;2024-02-21T05:55:36;5.60;;;2.35;;
80623;SDS011;70269;44.768;9.600;2024-02-21T05:58:02;8.23;;;3.33;;
80623;SDS011;70269;44.768;9.600;2024-02-21T06:00:28;8.32;;;3.05;;
80623;SDS011;70269;44.768;9.600;2024-02-21T06:02:53;8.13;;;3.05;;
80623;SDS011;70269;44.768;9.600;2024-02-21T06:05:19;6.85;;;2.72;;
80623;SDS011;70269;44.768;9.600;2024-02-21T06:07:45;5.18;;;2.78;;
80623;SDS011;70269;44.768;9.600;2024-02-21T06:10:11;6.80;;;2.92;;
80623;SDS011;70269;44.768;9.600;2024-02-21T06:12:37;5.70;;;2.08;;
80623;SDS011;70269;44.768;9.600;2024-02-21T06:15:02;9.23;;;2.90;;
80623;SDS011;70269;44.768;9.600;2024-02-21T06:17:28;12.05;;;4.45;;
80623;SDS011;70269;44.768;9.600;2024-02-21T06:19:54;8.95;;;3.25;;
80623;SDS011;70269;44.768;9.600;2024-02-21T06:22:19;6.53;;;3.15;;
80623;SDS011;70269;44.768;9.600;2024-02-21T06:24:45;6.50;;;2.97;;
80623;SDS011;70269;44.768;9.600;2024-02-21T06:27:11;8.07;;;2.83;;
80623;SDS011;70269;44.768;9.600;2024-02-21T06:29:36;5.00;;;3.00;;
80623;SDS011;70269;44.768;9.600;2024-02-21T06:32:02;6.68;;;2.92;;
80623;SDS011;70269;44.768;9.600;2024-02-21T06:34:28;6.05;;;2.60;;
80623;SDS011;70269;44.768;9.600;2024-02-21T06:36:54;6.15;;;2.30;;
80623;SDS011;70269;44.768;9.600;2024-02-21T06:39:19;8.35;;;3.10;;
80623;SDS011;70269;44.768;9.600;2024-02-21T06:41:47;5.90;;;2.60;;
80623;SDS011;70269;44.768;9.600;2024-02-21T06:44:13;5.72;;;2.45;;
80623;SDS011;70269;44.768;9.600;2024-02-21T06:46:38;8.25;;;2.63;;
80623;SDS011;70269;44.768;9.600;2024-02-21T06:49:04;5.60;;;2.20;;
80623;SDS011;70269;44.768;9.600;2024-02-21T06:51:29;6.45;;;2.35;;
80623;SDS011;70269;44.768;9.600;2024-02-21T06:53:55;7.53;;;2.80;;
80623;SDS011;70269;44.768;9.600;2024-02-21T06:56:23;7.82;;;2.25;;
80623;SDS011;70269;44.768;9.600;2024-02-21T06:58:57;7.88;;;3.03;;
80623;SDS011;70269;44.768;9.600;2024-02-21T07:01:23;10.60;;;3.75;;
80623;SDS011;70269;44.768;9.600;2024-02-21T07:03:50;9.45;;;3.13;;
80623;SDS011;70269;44.768;9.600;2024-02-21T07:06:15;5.80;;;2.40;;
80623;SDS011;70269;44.768;9.600;2024-02-21T07:08:41;16.40;;;3.63;;
80623;SDS011;70269;44.768;9.600;2024-02-21T07:11:07;4.93;;;2.47;;
80623;SDS011;70269;44.768;9.600;2024-02-21T07:13:32;8.27;;;1.67;;
80623;SDS011;70269;44.768;9.600;2024-02-21T07:15:58;5.10;;;2.60;;
80623;SDS011;70269;44.768;9.600;2024-02-21T07:18:24;5.95;;;2.83;;
80623;SDS011;70269;44.768;9.600;2024-02-21T07:20:52;4.28;;;2.30;;
80623;SDS011;70269;44.768;9.600;2024-02-21T07:23:18;8.10;;;2.90;;
80623;SDS011;70269;44.768;9.600;2024-02-21T07:25:44;5.25;;;2.55;;
80623;SDS011;70269;44.768;9.600;2024-02-21T07:28:10;6.25;;;2.75;;
80623;SDS011;70269;44.768;9.600;2024-02-21T07:30:36;5.90;;;2.38;;
80623;SDS011;70269;44.768;9.600;2024-02-21T07:33:02;7.20;;;2.97;;
80623;SDS011;70269;44.768;9.600;2024-02-21T07:35:27;6.03;;;2.58;;
80623;SDS011;70269;44.768;9.600;2024-02-21T07:37:53;7.03;;;2.83;;
80623;SDS011;70269;44.768;9.600;2024-02-21T07:40:19;10.00;;;3.17;;
80623;SDS011;70269;44.768;9.600;2024-02-21T07:42:44;8.10;;;3.28;;
80623;SDS011;70269;44.768;9.600;2024-02-21T07:45:10;6.55;;;2.92;;
80623;SDS011;70269;44.768;9.600;2024-02-21T07:47:37;4.95;;;2.17;;
80623;SDS011;70269;44.768;9.600;2024-02-21T07:50:05;10.20;;;2.85;;
80623;SDS011;70269;44.768;9.600;2024-02-21T07:52:32;7.53;;;2.65;;
80623;SDS011;70269;44.768;9.600;2024-02-21T07:54:58;7.25;;;2.60;;
80623;SDS011;70269;44.768;9.600;2024-02-21T07:57:23;8.70;;;3.33;;
80623;SDS011;70269;44.768;9.600;2024-02-21T07:59:49;5.53;;;2.38;;
80623;SDS011;70269;44.768;9.600;2024-02-21T08:02:15;8.70;;;3.40;;
80623;SDS011;70269;44.768;9.600;2024-02-21T08:04:41;8.45;;;3.08;;
80623;SDS011;70269;44.768;9.600;2024-02-21T08:07:06;7.00;;;3.10;;
80623;SDS011;70269;44.768;9.600;2024-02-21T08:09:32;8.43;;;2.95;;
80623;SDS011;70269;44.768;9.600;2024-02-21T08:11:58;7.82;;;3.63;;
80623;SDS011;70269;44.768;9.600;2024-02-21T08:14:23;8.27;;;3.13;;
80623;SDS011;70269;44.768;9.600;2024-02-21T08:16:50;6.35;;;2.83;;
80623;SDS011;70269;44.768;9.600;2024-02-21T08:19:18;8.35;;;3.92;;
80623;SDS011;70269;44.768;9.600;2024-02-21T08:21:44;8.20;;;3.67;;
80623;SDS011;70269;44.768;9.600;2024-02-21T08:24:12;8.00;;;2.53;;
80623;SDS011;70269;44.768;9.600;2024-02-21T08:26:40;7.63;;;3.10;;
80623;SDS011;70269;44.768;9.600;2024-02-21T08:29:06;7.68;;;2.38;;
80623;SDS011;70269;44.768;9.600;2024-02-21T08:31:32;7.68;;;3.20;;
80623;SDS011;70269;44.768;9.600;2024-02-21T08:33:58;6.03;;;3.10;;
80623;SDS011;70269;44.768;9.600;2024-02-21T08:36:30;6.30;;;2.97;;
80623;SDS011;70269;44.768;9.600;2024-02-21T08:38:56;8.77;;;3.15;;
80623;SDS011;70269;44.768;9.600;2024-02-21T08:41:25;6.03;;;2.50;;
80623;SDS011;70269;44.768;9.600;2024-02-21T08:43:51;5.43;;;2.10;;
80623;SDS011;70269;44.768;9.600;2024-02-21T08:46:21;6.90;;;2.78;;
80623;SDS011;70269;44.768;9.600;2024-02-21T08:48:49;8.73;;;3.08;;
80623;SDS011;70269;44.768;9.600;2024-02-21T08:51:16;7.90;;;3.05;;
80623;SDS011;70269;44.768;9.600;2024-02-21T08:53:46;7.50;;;2.97;;
80623;SDS011;70269;44.768;9.600;2024-02-21T08:56:12;6.47;;;3.00;;
80623;SDS011;70269;44.768;9.600;2024-02-21T08:58:39;10.48;;;3.15;;
80623;SDS011;70269;44.768;9.600;2024-02-21T09:01:05;7.97;;;2.90;;
80623;SDS011;70269;44.768;9.600;2024-02-21T09:03:32;6.38;;;2.55;;
80623;SDS011;70269;44.768;9.600;2024-02-21T09:05:58;8.48;;;3.42;;
80623;SDS011;70269;44.768;9.600;2024-02-21T09:08:25;10.30;;;3.53;;
80623;SDS011;70269;44.768;9.600;2024-02-21T09:10:50;9.15;;;3.20;;
80623;SDS011;70269;44.768;9.600;2024-02-21T09:13:16;6.68;;;3.05;;
80623;SDS011;70269;44.768;9.600;2024-02-21T09:15:42;6.88;;;2.42;;
80623;SDS011;70269;44.768;9.600;2024-02-21T09:18:08;8.88;;;3.47;;
80623;SDS011;70269;44.768;9.600;2024-02-21T09:20:34;8.30;;;3.55;;
80623;SDS011;70269;44.768;9.600;2024-02-21T09:23:02;7.72;;;3.25;;
80623;SDS011;70269;44.768;9.600;2024-02-21T09:25:27;13.38;;;4.25;;
80623;SDS011;70269;44.768;9.600;2024-02-21T09:27:53;9.25;;;3.70;;
80623;SDS011;70269;44.768;9.600;2024-02-21T09:30:20;9.02;;;4.57;;
80623;SDS011;70269;44.768;9.600;2024-02-21T09:32:45;11.68;;;3.92;;
80623;SDS011;70269;44.768;9.600;2024-02-21T09:35:12;12.10;;;4.15;;
80623;SDS011;70269;44.768;9.600;2024-02-21T09:37:38;12.02;;;5.78;;
80623;SDS011;70269;44.768;9.600;2024-02-21T09:40:05;12.98;;;5.93;;
80623;SDS011;70269;44.768;9.600;2024-02-21T09:42:36;13.35;;;4.50;;
80623;SDS011;70269;44.768;9.600;2024-02-21T09:50:33;12.77;;;4.88;;
80623;SDS011;70269;44.768;9.600;2024-02-21T09:53:01;17.70;;;7.78;;
80623;SDS011;70269;44.768;9.600;2024-02-21T09:55:31;16.17;;;6.93;;
80623;SDS011;70269;44.768;9.600;2024-02-21T09:57:59;16.63;;;6.68;;
80623;SDS011;70269;44.768;9.600;2024-02-21T10:00:26;20.73;;;6.13;;
80623;SDS011;70269;44.768;9.600;2024-02-21T10:02:53;16.85;;;6.30;;
80623;SDS011;70269;44.768;9.600;2024-02-21T10:05:19;19.65;;;9.15;;
80623;SDS011;70269;44.768;9.600;2024-02-21T10:07:45;17.55;;;7.63;;
80623;SDS011;70269;44.768;9.600;2024-02-21T10:10:12;23.60;;;11.73;;
80623;SDS011;70269;44.768;9.600;2024-02-21T10:12:47;24.52;;;10.75;;
80623;SDS011;70269;44.768;9.600;2024-02-21T10:15:23;22.33;;;10.65;;
80623;SDS011;70269;44.768;9.600;2024-02-21T10:17:59;31.58;;;13.77;;
80623;SDS011;70269;44.768;9.600;2024-02-21T10:20:25;21.45;;;10.63;;
80623;SDS011;70269;44.768;9.600;2024-02-21T10:23:04;26.27;;;12.68;;
80623;SDS011;70269;44.768;9.600;2024-02-21T10:25:36;24.88;;;11.25;;
80623;SDS011;70269;44.768;9.600;2024-02-21T10:28:12;28.50;;;11.52;;
80623;SDS011;70269;44.768;9.600;2024-02-21T10:30:37;25.20;;;11.85;;
80623;SDS011;70269;44.768;9.600;2024-02-21T10:33:03;29.73;;;11.73;;
80623;SDS011;70269;44.768;9.600;2024-02-21T10:35:31;24.58;;;10.88;;
80623;SDS011;70269;44.768;9.600;2024-02-21T10:37:58;25.38;;;11.93;;
80623;SDS011;70269;44.768;9.600;2024-02-21T10:40:25;28.90;;;12.32;;
80623;SDS011;70269;44.768;9.600;2024-02-21T10:42:56;31.88;;;13.43;;
80623;SDS011;70269;44.768;9.600;2024-02-21T10:45:30;25.38;;;12.82;;
80623;SDS011;70269;44.768;9.600;2024-02-21T10:51:24;31.88;;;14.77;;
80623;SDS011;70269;44.768;9.600;2024-02-21T10:58:50;34.15;;;15.77;;
80623;SDS011;70269;44.768;9.600;2024-02-21T11:01:18;27.70;;;13.25;;
80623;SDS011;70269;44.768;9.600;2024-02-21T11:03:45;25.38;;;12.07;;
80623;SDS011;70269;44.768;9.600;2024-02-21T11:06:12;28.98;;;13.70;;
80623;SDS011;70269;44.768;9.600;2024-02-21T11:08:39;24.85;;;11.98;;
80623;SDS011;70269;44.768;9.600;2024-02-21T11:11:04;28.20;;;13.65;;
80623;SDS011;70269;44.768;9.600;2024-02-21T11:13:40;28.35;;;12.40;;
80623;SDS011;70269;44.768;9.600;2024-02-21T11:16:09;25.50;;;12.75;;
80623;SDS011;70269;44.768;9.600;2024-02-21T11:18:36;20.80;;;12.65;;
80623;SDS011;70269;44.768;9.600;2024-02-21T11:21:02;30.27;;;13.38;;
80623;SDS011;70269;44.768;9.600;2024-02-21T11:23:31;29.15;;;14.00;;
80623;SDS011;70269;44.768;9.600;2024-02-21T11:26:04;31.38;;;14.50;;
80623;SDS011;70269;44.768;9.600;2024-02-21T11:28:34;34.05;;;15.63;;
80623;SDS011;70269;44.768;9.600;2024-02-21T11:31:08;26.63;;;12.68;;
80623;SDS011;70269;44.768;9.600;2024-02-21T11:33:40;25.17;;;13.38;;
80623;SDS011;70269;44.768;9.600;2024-02-21T11:36:10;32.30;;;12.63;;
80623;SDS011;70269;44.768;9.600;2024-02-21T11:38:36;22.23;;;12.38;;
80623;SDS011;70269;44.768;9.600;2024-02-21T11:41:02;20.92;;;10.90;;
80623;SDS011;70269;44.768;9.600;2024-02-21T11:43:28;28.27;;;12.15;;
80623;SDS011;70269;44.768;9.600;2024-02-21T11:46:02;29.92;;;13.73;;
80623;SDS011;70269;44.768;9.600;2024-02-21T11:48:30;26.98;;;13.25;;
80623;SDS011;70269;44.768;9.600;2024-02-21T11:50:57;22.13;;;10.85;;
80623;SDS011;70269;44.768;9.600;2024-02-21T11:53:23;21.75;;;11.60;;
80623;SDS011;70269;44.768;9.600;2024-02-21T11:55:49;26.92;;;10.30;;
80623;SDS011;70269;44.768;9.600;2024-02-21T11:58:15;18.63;;;9.57;;
80623;SDS011;70269;44.768;9.600;2024-02-21T12:00:41;29.10;;;12.48;;
80623;SDS011;70269;44.768;9.600;2024-02-21T12:03:07;19.20;;;8.57;;
80623;SDS011;70269;44.768;9.600;2024-02-21T12:05:33;21.20;;;10.65;;
80623;SDS011;70269;44.768;9.600;2024-02-21T12:07:59;24.70;;;12.52;;
80623;SDS011;70269;44.768;9.600;2024-02-21T12:10:25;30.33;;;14.25;;
80623;SDS011;70269;44.768;9.600;2024-02-21T12:12:52;23.08;;;10.18;;
80623;SDS011;70269;44.768;9.600;2024-02-21T12:15:23;23.38;;;10.35;;
80623;SDS011;70269;44.768;9.600;2024-02-21T12:17:49;25.63;;;11.10;;
80623;SDS011;70269;44.768;9.600;2024-02-21T12:20:17;22.20;;;13.23;;
80623;SDS011;70269;44.768;9.600;2024-02-21T12:22:42;21.45;;;11.30;;
80623;SDS011;70269;44.768;9.600;2024-02-21T12:25:17;23.00;;;11.10;;
80623;SDS011;70269;44.768;9.600;2024-02-21T12:27:52;27.50;;;11.88;;
80623;SDS011;70269;44.768;9.600;2024-02-21T12:30:18;27.67;;;11.80;;
80623;SDS011;70269;44.768;9.600;2024-02-21T12:32:45;27.48;;;12.10;;
80623;SDS011;70269;44.768;9.600;2024-02-21T12:35:10;33.72;;;14.18;;
80623;SDS011;70269;44.768;9.600;2024-02-21T12:37:36;27.95;;;13.57;;
80623;SDS011;70269;44.768;9.600;2024-02-21T12:40:04;27.58;;;10.73;;
80623;SDS011;70269;44.768;9.600;2024-02-21T12:42:32;28.50;;;13.38;;
80623;SDS011;70269;44.768;9.600;2024-02-21T12:44:59;25.25;;;11.30;;
80623;SDS011;70269;44.768;9.600;2024-02-21T12:47:25;23.88;;;12.75;;
80623;SDS011;70269;44.768;9.600;2024-02-21T12:49:52;28.88;;;12.70;;
80623;SDS011;70269;44.768;9.600;2024-02-21T12:52:18;26.13;;;12.30;;
80623;SDS011;70269;44.768;9.600;2024-02-21T12:54:44;33.78;;;15.50;;
80623;SDS011;70269;44.768;9.600;2024-02-21T12:57:09;28.98;;;12.75;;
80623;SDS011;70269;44.768;9.600;2024-02-21T12:59:35;29.27;;;13.02;;
80623;SDS011;70269;44.768;9.600;2024-02-21T13:02:01;29.38;;;14.05;;
80623;SDS011;70269;44.768;9.600;2024-02-21T13:04:27;34.13;;;14.65;;
80623;SDS011;70269;44.768;9.600;2024-02-21T13:06:53;26.60;;;12.77;;
80623;SDS011;70269;44.768;9.600;2024-02-21T13:09:19;26.40;;;12.40;;
80623;SDS011;70269;44.768;9.600;2024-02-21T13:11:45;34.28;;;14.65;;
80623;SDS011;70269;44.768;9.600;2024-02-21T13:14:11;27.50;;;14.65;;
80623;SDS011;70269;44.768;9.600;2024-02-21T13:16:37;26.35;;;12.20;;
80623;SDS011;70269;44.768;9.600;2024-02-21T13:19:06;35.60;;;13.38;;
80623;SDS011;70269;44.768;9.600;2024-02-21T13:21:33;34.05;;;15.93;;
80623;SDS011;70269;44.768;9.600;2024-02-21T13:24:00;29.83;;;13.77;;
80623;SDS011;70269;44.768;9.600;2024-02-21T13:26:25;31.00;;;14.23;;
80623;SDS011;70269;44.768;9.600;2024-02-21T13:28:52;28.45;;;14.90;;
80623;SDS011;70269;44.768;9.600;2024-02-21T13:31:18;32.65;;;14.60;;
80623;SDS011;70269;44.768;9.600;2024-02-21T13:33:44;34.60;;;13.65;;
80623;SDS011;70269;44.768;9.600;2024-02-21T13:36:10;28.92;;;12.98;;
80623;SDS011;70269;44.768;9.600;2024-02-21T13:38:35;27.75;;;14.30;;
80623;SDS011;70269;44.768;9.600;2024-02-21T13:41:01;31.38;;;14.30;;
80623;SDS011;70269;44.768;9.600;2024-02-21T13:43:27;25.60;;;13.52;;
80623;SDS011;70269;44.768;9.600;2024-02-21T13:45:56;30.35;;;14.35;;
80623;SDS011;70269;44.768;9.600;2024-02-21T13:48:23;28.90;;;13.30;;
80623;SDS011;70269;44.768;9.600;2024-02-21T13:50:49;30.92;;;12.88;;
80623;SDS011;70269;44.768;9.600;2024-02-21T13:53:15;22.23;;;10.55;;
80623;SDS011;70269;44.768;9.600;2024-02-21T13:55:44;35.92;;;14.30;;
80623;SDS011;70269;44.768;9.600;2024-02-21T13:58:12;26.45;;;12.52;;
80623;SDS011;70269;44.768;9.600;2024-02-21T14:00:38;34.22;;;14.05;;
80623;SDS011;70269;44.768;9.600;2024-02-21T14:03:04;27.58;;;13.40;;
80623;SDS011;70269;44.768;9.600;2024-02-21T14:05:29;30.67;;;12.60;;
80623;SDS011;70269;44.768;9.600;2024-02-21T14:07:55;30.40;;;14.32;;
80623;SDS011;70269;44.768;9.600;2024-02-21T14:10:21;20.80;;;9.90;;
80623;SDS011;70269;44.768;9.600;2024-02-21T14:12:50;30.10;;;13.15;;
80623;SDS011;70269;44.768;9.600;2024-02-21T14:15:23;27.30;;;13.63;;
80623;SDS011;70269;44.768;9.600;2024-02-21T14:17:50;30.08;;;12.85;;
80623;SDS011;70269;44.768;9.600;2024-02-21T14:20:15;32.25;;;13.57;;
80623;SDS011;70269;44.768;9.600;2024-02-21T14:22:41;30.17;;;13.40;;
80623;SDS011;70269;44.768;9.600;2024-02-21T14:25:07;29.75;;;13.82;;
80623;SDS011;70269;44.768;9.600;2024-02-21T14:27:33;26.23;;;12.73;;
80623;SDS011;70269;44.768;9.600;2024-02-21T14:29:58;32.72;;;14.15;;
80623;SDS011;70269;44.768;9.600;2024-02-21T14:32:24;29.27;;;12.93;;
80623;SDS011;70269;44.768;9.600;2024-02-21T14:34:50;30.52;;;13.93;;
80623;SDS011;70269;44.768;9.600;2024-02-21T14:37:15;27.40;;;13.65;;
80623;SDS011;70269;44.768;9.600;2024-02-21T14:39:41;27.38;;;14.60;;
80623;SDS011;70269;44.768;9.600;2024-02-21T14:42:08;29.35;;;14.00;;
80623;SDS011;70269;44.768;9.600;2024-02-21T14:44:35;29.92;;;14.27;;
80623;SDS011;70269;44.768;9.600;2024-02-21T14:47:01;27.25;;;13.85;;
80623;SDS011;70269;44.768;9.600;2024-02-21T14:49:28;29.15;;;15.00;;